sensor_id;sensor_type;location;lat;lon;timestamp;pressure;altitude;pressure_sealevel;temperature;humidity
68873;BME280;55907;50.806;12.882;2023-12-22T00:02:49;950.4;;;3.8;80.1
68873;BME280;55907;50.806;12.882;2023-12-22T00:05:49;950.5;;;3.9;79.9
68873;BME280;55907;50.806;12.882;2023-12-22T00:08:50;950.5;;;3.9;80.2
68873;BME280;55907;50.806;12.882;2023-12-22T00:11:51;950.5;;;3.8;80.9
68873;BME280;55907;50.806;12.882;2023-12-22T00:14:52;950.6;;;3.8;80.7
68873;BME280;55907;50.806;12.882;2023-12-22T00:17:53;950.7;;;3.8;80.0
68873;BME280;55907;50.806;12.882;2023-12-22T00:20:54;950.7;;;3.9;79.8
68873;BME280;55907;50.806;12.882;2023-12-22T00:23:54;950.7;;;3.9;79.5
68873;BME280;55907;50.806;12.882;2023-12-22T00:26:55;950.8;;;3.9;78.9
68873;BME280;55907;50.806;12.882;2023-12-22T00:29:56;950.8;;;3.9;77.9
68873;BME280;55907;50.806;12.882;2023-12-22T00:32:57;950.8;;;4.0;77.8
68873;BME280;55907;50.806;12.882;2023-12-22T00:35:58;950.8;;;4.0;77.2
68873;BME280;55907;50.806;12.882;2023-12-22T00:38:59;950.9;;;3.9;77.5
68873;BME280;55907;50.806;12.882;2023-12-22T00:41:59;950.7;;;4.0;76.4
68873;BME280;55907;50.806;12.882;2023-12-22T00:45:00;950.9;;;4.0;76.0
68873;BME280;55907;50.806;12.882;2023-12-22T00:48:01;950.8;;;4.0;75.2
68873;BME280;55907;50.806;12.882;2023-12-22T00:51:02;950.9;;;4.0;74.8
68873;BME280;55907;50.806;12.882;2023-12-22T00:57:04;951.0;;;4.0;73.9
68873;BME280;55907;50.806;12.882;2023-12-22T01:00:05;950.8;;;4.0;73.6
68873;BME280;55907;50.806;12.882;2023-12-22T01:03:05;950.9;;;4.0;73.3
68873;BME280;55907;50.806;12.882;2023-12-22T01:06:06;951.0;;;3.9;72.8
68873;BME280;55907;50.806;12.882;2023-12-22T01:09:07;951.0;;;3.9;72.7
68873;BME280;55907;50.806;12.882;2023-12-22T01:12:08;951.0;;;3.8;71.5
68873;BME280;55907;50.806;12.882;2023-12-22T01:15:08;951.0;;;3.8;71.4
68873;BME280;55907;50.806;12.882;2023-12-22T01:18:10;951.1;;;3.7;70.6
68873;BME280;55907;50.806;12.882;2023-12-22T01:21:10;951.1;;;3.7;71.4
68873;BME280;55907;50.806;12.882;2023-12-22T01:24:11;951.1;;;3.7;71.4
68873;BME280;55907;50.806;12.882;2023-12-22T01:27:12;951.2;;;3.7;70.9
68873;BME280;55907;50.806;12.882;2023-12-22T01:30:12;951.2;;;3.7;71.1
68873;BME280;55907;50.806;12.882;2023-12-22T01:33:13;951.2;;;3.7;70.9
68873;BME280;55907;50.806;12.882;2023-12-22T01:36:14;951.1;;;3.8;70.3
68873;BME280;55907;50.806;12.882;2023-12-22T01:39:15;951.1;;;3.8;70.0
68873;BME280;55907;50.806;12.882;2023-12-22T01:42:16;951.1;;;3.9;69.9
68873;BME280;55907;50.806;12.882;2023-12-22T01:45:17;951.2;;;3.9;69.5
68873;BME280;55907;50.806;12.882;2023-12-22T01:48:17;951.2;;;3.9;69.4
68873;BME280;55907;50.806;12.882;2023-12-22T01:51:18;951.1;;;3.9;69.7
68873;BME280;55907;50.806;12.882;2023-12-22T01:54:19;951.1;;;3.9;69.1
68873;BME280;55907;50.806;12.882;2023-12-22T01:57:20;950.9;;;3.9;69.1
68873;BME280;55907;50.806;12.882;2023-12-22T02:00:21;950.8;;;4.0;68.4
68873;BME280;55907;50.806;12.882;2023-12-22T02:03:22;950.7;;;4.0;68.2
68873;BME280;55907;50.806;12.882;2023-12-22T02:06:22;950.9;;;4.0;68.2
68873;BME280;55907;50.806;12.882;2023-12-22T02:09:23;950.8;;;4.0;67.8
68873;BME280;55907;50.806;12.882;2023-12-22T02:12:24;950.9;;;4.1;68.2
68873;BME280;55907;50.806;12.882;2023-12-22T02:15:25;950.9;;;4.0;68.2
68873;BME280;55907;50.806;12.882;2023-12-22T02:18:32;950.9;;;4.0;68.6
68873;BME280;55907;50.806;12.882;2023-12-22T02:21:26;951.0;;;4.1;68.1
68873;BME280;55907;50.806;12.882;2023-12-22T02:24:28;950.9;;;4.0;67.9
68873;BME280;55907;50.806;12.882;2023-12-22T02:27:33;951.0;;;4.1;68.1
68873;BME280;55907;50.806;12.882;2023-12-22T02:30:32;950.8;;;4.0;68.3
68873;BME280;55907;50.806;12.882;2023-12-22T02:33:31;951.0;;;4.1;67.9
68873;BME280;55907;50.806;12.882;2023-12-22T02:36:32;951.0;;;4.1;68.0
68873;BME280;55907;50.806;12.882;2023-12-22T02:39:32;950.9;;;4.2;67.9
68873;BME280;55907;50.806;12.882;2023-12-22T02:42:33;950.9;;;4.1;68.6
68873;BME280;55907;50.806;12.882;2023-12-22T02:45:33;950.9;;;4.2;68.7
68873;BME280;55907;50.806;12.882;2023-12-22T02:48:34;950.9;;;4.1;68.3
68873;BME280;55907;50.806;12.882;2023-12-22T02:51:35;951.0;;;4.1;68.6
68873;BME280;55907;50.806;12.882;2023-12-22T02:54:36;951.0;;;4.1;68.8
68873;BME280;55907;50.806;12.882;2023-12-22T02:57:36;950.9;;;4.1;68.8
68873;BME280;55907;50.806;12.882;2023-12-22T03:00:37;951.0;;;4.1;69.3
68873;BME280;55907;50.806;12.882;2023-12-22T03:03:38;950.9;;;4.1;69.6
68873;BME280;55907;50.806;12.882;2023-12-22T03:06:39;950.8;;;4.1;69.2
68873;BME280;55907;50.806;12.882;2023-12-22T03:09:40;950.9;;;4.0;69.6
68873;BME280;55907;50.806;12.882;2023-12-22T03:12:40;950.9;;;4.0;69.9
68873;BME280;55907;50.806;12.882;2023-12-22T03:15:41;950.9;;;4.0;69.8
68873;BME280;55907;50.806;12.882;2023-12-22T03:18:42;950.9;;;4.0;69.9
68873;BME280;55907;50.806;12.882;2023-12-22T03:21:43;950.9;;;4.0;70.2
68873;BME280;55907;50.806;12.882;2023-12-22T03:24:44;950.8;;;4.0;69.7
68873;BME280;55907;50.806;12.882;2023-12-22T03:27:45;951.0;;;3.9;70.3
68873;BME280;55907;50.806;12.882;2023-12-22T03:30:45;951.0;;;4.0;70.2
68873;BME280;55907;50.806;12.882;2023-12-22T03:33:46;950.9;;;4.0;70.0
68873;BME280;55907;50.806;12.882;2023-12-22T03:36:47;951.0;;;4.0;69.9
68873;BME280;55907;50.806;12.882;2023-12-22T03:39:48;950.9;;;4.0;69.9
68873;BME280;55907;50.806;12.882;2023-12-22T03:42:49;950.7;;;4.0;69.8
68873;BME280;55907;50.806;12.882;2023-12-22T03:45:50;950.9;;;4.0;70.1
68873;BME280;55907;50.806;12.882;2023-12-22T03:48:51;950.8;;;4.1;70.1
68873;BME280;55907;50.806;12.882;2023-12-22T03:51:51;950.9;;;4.1;70.1
68873;BME280;55907;50.806;12.882;2023-12-22T03:54:52;951.1;;;4.0;72.0
68873;BME280;55907;50.806;12.882;2023-12-22T03:57:53;951.1;;;3.6;80.0
68873;BME280;55907;50.806;12.882;2023-12-22T04:00:54;950.8;;;3.1;85.3
68873;BME280;55907;50.806;12.882;2023-12-22T04:03:55;951.0;;;2.6;91.1
68873;BME280;55907;50.806;12.882;2023-12-22T04:06:56;951.1;;;2.3;94.2
68873;BME280;55907;50.806;12.882;2023-12-22T04:09:56;951.0;;;2.2;95.5
68873;BME280;55907;50.806;12.882;2023-12-22T04:12:57;951.0;;;2.2;96.2
68873;BME280;55907;50.806;12.882;2023-12-22T04:15:58;951.0;;;2.2;96.9
68873;BME280;55907;50.806;12.882;2023-12-22T04:18:59;950.9;;;2.2;97.2
68873;BME280;55907;50.806;12.882;2023-12-22T04:22:00;951.0;;;2.0;97.7
68873;BME280;55907;50.806;12.882;2023-12-22T04:25:01;951.1;;;1.9;98.8
68873;BME280;55907;50.806;12.882;2023-12-22T04:28:01;951.2;;;1.8;99.4
68873;BME280;55907;50.806;12.882;2023-12-22T04:31:02;951.2;;;1.6;100.0
68873;BME280;55907;50.806;12.882;2023-12-22T04:34:03;951.0;;;1.6;100.0
68873;BME280;55907;50.806;12.882;2023-12-22T04:37:04;951.2;;;1.5;100.0
68873;BME280;55907;50.806;12.882;2023-12-22T04:40:06;951.2;;;1.6;100.0
68873;BME280;55907;50.806;12.882;2023-12-22T04:43:06;951.2;;;1.7;100.0
68873;BME280;55907;50.806;12.882;2023-12-22T04:46:07;951.1;;;1.9;99.8
68873;BME280;55907;50.806;12.882;2023-12-22T04:49:07;951.0;;;2.0;97.4
68873;BME280;55907;50.806;12.882;2023-12-22T04:52:08;951.0;;;2.1;95.8
68873;BME280;55907;50.806;12.882;2023-12-22T04:55:09;951.0;;;2.2;94.3
68873;BME280;55907;50.806;12.882;2023-12-22T04:58:10;951.1;;;2.2;94.2
68873;BME280;55907;50.806;12.882;2023-12-22T05:01:11;951.1;;;2.2;92.4
68873;BME280;55907;50.806;12.882;2023-12-22T05:04:12;951.1;;;2.2;92.9
68873;BME280;55907;50.806;12.882;2023-12-22T05:07:13;951.0;;;2.3;91.5
68873;BME280;55907;50.806;12.882;2023-12-22T05:10:13;951.1;;;2.2;91.4
68873;BME280;55907;50.806;12.882;2023-12-22T05:13:14;951.1;;;2.2;91.0
68873;BME280;55907;50.806;12.882;2023-12-22T05:16:15;951.0;;;2.2;91.0
68873;BME280;55907;50.806;12.882;2023-12-22T05:19:16;951.0;;;2.3;90.4
68873;BME280;55907;50.806;12.882;2023-12-22T05:22:17;950.9;;;2.3;87.8
68873;BME280;55907;50.806;12.882;2023-12-22T05:25:17;951.0;;;2.3;88.3
68873;BME280;55907;50.806;12.882;2023-12-22T05:28:18;951.1;;;2.3;87.2
68873;BME280;55907;50.806;12.882;2023-12-22T05:31:19;951.0;;;2.3;86.4
68873;BME280;55907;50.806;12.882;2023-12-22T05:34:20;951.2;;;2.3;85.4
68873;BME280;55907;50.806;12.882;2023-12-22T05:37:21;951.0;;;2.3;85.4
68873;BME280;55907;50.806;12.882;2023-12-22T05:40:22;950.9;;;2.3;85.1
68873;BME280;55907;50.806;12.882;2023-12-22T05:43:22;951.0;;;2.2;85.3
68873;BME280;55907;50.806;12.882;2023-12-22T05:46:23;950.9;;;2.2;85.0
68873;BME280;55907;50.806;12.882;2023-12-22T05:49:24;951.1;;;2.2;85.8
68873;BME280;55907;50.806;12.882;2023-12-22T05:52:25;951.1;;;2.2;86.3
68873;BME280;55907;50.806;12.882;2023-12-22T05:55:26;951.2;;;2.2;86.3
68873;BME280;55907;50.806;12.882;2023-12-22T05:58:27;951.1;;;2.2;85.9
68873;BME280;55907;50.806;12.882;2023-12-22T06:01:28;951.1;;;2.2;85.0
68873;BME280;55907;50.806;12.882;2023-12-22T06:04:28;951.2;;;2.1;85.4
68873;BME280;55907;50.806;12.882;2023-12-22T06:07:29;951.1;;;2.2;86.0
68873;BME280;55907;50.806;12.882;2023-12-22T06:10:30;951.2;;;2.2;86.2
68873;BME280;55907;50.806;12.882;2023-12-22T06:13:31;951.1;;;2.1;87.2
68873;BME280;55907;50.806;12.882;2023-12-22T06:19:35;951.3;;;2.1;87.9
68873;BME280;55907;50.806;12.882;2023-12-22T06:22:34;951.2;;;2.1;88.2
68873;BME280;55907;50.806;12.882;2023-12-22T06:25:34;951.3;;;2.1;88.4
68873;BME280;55907;50.806;12.882;2023-12-22T06:28:35;951.4;;;2.1;89.3
68873;BME280;55907;50.806;12.882;2023-12-22T06:31:36;951.3;;;2.2;88.8
68873;BME280;55907;50.806;12.882;2023-12-22T06:34:37;951.4;;;2.2;88.8
68873;BME280;55907;50.806;12.882;2023-12-22T06:37:40;951.2;;;2.2;88.4
68873;BME280;55907;50.806;12.882;2023-12-22T06:40:39;951.3;;;2.2;88.4
68873;BME280;55907;50.806;12.882;2023-12-22T06:43:39;951.2;;;2.1;88.7
68873;BME280;55907;50.806;12.882;2023-12-22T06:46:40;951.3;;;2.1;88.4
68873;BME280;55907;50.806;12.882;2023-12-22T06:49:41;951.4;;;2.2;87.9
68873;BME280;55907;50.806;12.882;2023-12-22T06:52:42;951.2;;;2.2;88.0
68873;BME280;55907;50.806;12.882;2023-12-22T06:55:43;951.4;;;2.3;87.7
68873;BME280;55907;50.806;12.882;2023-12-22T06:58:44;951.4;;;2.3;87.4
68873;BME280;55907;50.806;12.882;2023-12-22T07:01:45;951.4;;;2.3;87.3
68873;BME280;55907;50.806;12.882;2023-12-22T07:07:46;951.4;;;2.4;86.2
68873;BME280;55907;50.806;12.882;2023-12-22T07:10:47;951.6;;;2.4;85.4
68873;BME280;55907;50.806;12.882;2023-12-22T07:13:48;951.6;;;2.5;85.4
68873;BME280;55907;50.806;12.882;2023-12-22T07:16:49;951.5;;;2.5;85.0
68873;BME280;55907;50.806;12.882;2023-12-22T07:19:50;951.6;;;2.6;85.0
68873;BME280;55907;50.806;12.882;2023-12-22T07:22:50;951.6;;;2.6;86.5
68873;BME280;55907;50.806;12.882;2023-12-22T07:25:51;951.7;;;2.5;87.9
68873;BME280;55907;50.806;12.882;2023-12-22T07:31:53;951.9;;;2.6;89.4
68873;BME280;55907;50.806;12.882;2023-12-22T07:34:54;951.8;;;2.5;91.2
68873;BME280;55907;50.806;12.882;2023-12-22T07:37:55;952.1;;;2.5;92.0
68873;BME280;55907;50.806;12.882;2023-12-22T07:40:56;951.8;;;2.4;93.9
68873;BME280;55907;50.806;12.882;2023-12-22T07:43:56;952.0;;;2.2;95.7
68873;BME280;55907;50.806;12.882;2023-12-22T07:46:58;952.1;;;2.1;96.7
68873;BME280;55907;50.806;12.882;2023-12-22T07:49:58;952.1;;;2.1;96.9
68873;BME280;55907;50.806;12.882;2023-12-22T07:56:00;952.4;;;1.9;97.1
68873;BME280;55907;50.806;12.882;2023-12-22T07:59:01;952.6;;;2.0;96.9
68873;BME280;55907;50.806;12.882;2023-12-22T08:02:02;952.5;;;1.9;97.0
68873;BME280;55907;50.806;12.882;2023-12-22T08:05:03;952.6;;;1.9;96.9
68873;BME280;55907;50.806;12.882;2023-12-22T08:08:04;952.5;;;1.9;96.4
68873;BME280;55907;50.806;12.882;2023-12-22T08:11:04;952.7;;;1.9;96.5
68873;BME280;55907;50.806;12.882;2023-12-22T08:14:05;952.6;;;2.1;95.4
68873;BME280;55907;50.806;12.882;2023-12-22T08:17:06;952.6;;;2.3;94.1
68873;BME280;55907;50.806;12.882;2023-12-22T08:20:07;952.6;;;2.4;93.2
68873;BME280;55907;50.806;12.882;2023-12-22T08:23:07;952.7;;;2.5;92.4
68873;BME280;55907;50.806;12.882;2023-12-22T08:26:08;952.7;;;2.5;91.8
68873;BME280;55907;50.806;12.882;2023-12-22T08:29:09;952.8;;;2.4;91.7
68873;BME280;55907;50.806;12.882;2023-12-22T08:32:10;952.9;;;2.4;91.6
68873;BME280;55907;50.806;12.882;2023-12-22T08:35:11;952.7;;;2.3;90.9
68873;BME280;55907;50.806;12.882;2023-12-22T08:38:11;952.8;;;2.5;90.7
68873;BME280;55907;50.806;12.882;2023-12-22T08:41:12;952.8;;;2.6;89.6
68873;BME280;55907;50.806;12.882;2023-12-22T08:44:13;952.7;;;2.6;88.9
68873;BME280;55907;50.806;12.882;2023-12-22T08:47:14;952.9;;;2.6;89.7
68873;BME280;55907;50.806;12.882;2023-12-22T08:50:15;953.1;;;2.5;93.6
68873;BME280;55907;50.806;12.882;2023-12-22T08:53:16;953.1;;;2.4;94.4
68873;BME280;55907;50.806;12.882;2023-12-22T08:56:16;953.0;;;2.2;96.3
68873;BME280;55907;50.806;12.882;2023-12-22T08:59:17;953.2;;;2.2;96.5
68873;BME280;55907;50.806;12.882;2023-12-22T09:02:18;953.1;;;2.0;97.3
68873;BME280;55907;50.806;12.882;2023-12-22T09:05:19;953.1;;;2.0;97.2
68873;BME280;55907;50.806;12.882;2023-12-22T09:08:20;953.1;;;2.0;95.9
68873;BME280;55907;50.806;12.882;2023-12-22T09:11:21;953.2;;;1.9;94.8
68873;BME280;55907;50.806;12.882;2023-12-22T09:14:22;953.4;;;1.8;97.8
68873;BME280;55907;50.806;12.882;2023-12-22T09:17:22;953.5;;;1.7;98.3
68873;BME280;55907;50.806;12.882;2023-12-22T09:20:23;953.5;;;1.5;100.0
68873;BME280;55907;50.806;12.882;2023-12-22T09:23:24;953.7;;;1.4;100.0
68873;BME280;55907;50.806;12.882;2023-12-22T09:26:25;953.6;;;1.2;100.0
68873;BME280;55907;50.806;12.882;2023-12-22T09:29:26;953.3;;;1.2;100.0
68873;BME280;55907;50.806;12.882;2023-12-22T09:32:27;953.3;;;1.2;100.0
68873;BME280;55907;50.806;12.882;2023-12-22T09:35:27;953.4;;;1.3;100.0
68873;BME280;55907;50.806;12.882;2023-12-22T09:38:28;953.5;;;1.4;100.0
68873;BME280;55907;50.806;12.882;2023-12-22T09:41:29;953.6;;;1.4;100.0
68873;BME280;55907;50.806;12.882;2023-12-22T09:44:32;953.8;;;1.4;100.0
68873;BME280;55907;50.806;12.882;2023-12-22T09:47:32;953.8;;;1.3;100.0
68873;BME280;55907;50.806;12.882;2023-12-22T09:50:32;953.8;;;1.1;100.0
68873;BME280;55907;50.806;12.882;2023-12-22T09:53:33;953.8;;;1.1;100.0
68873;BME280;55907;50.806;12.882;2023-12-22T09:59:35;953.7;;;1.0;100.0
68873;BME280;55907;50.806;12.882;2023-12-22T10:05:36;953.5;;;1.1;100.0
68873;BME280;55907;50.806;12.882;2023-12-22T10:08:37;953.4;;;1.1;100.0
68873;BME280;55907;50.806;12.882;2023-12-22T10:11:39;953.5;;;1.3;100.0
68873;BME280;55907;50.806;12.882;2023-12-22T10:14:39;953.7;;;1.3;100.0
68873;BME280;55907;50.806;12.882;2023-12-22T10:17:39;953.7;;;1.5;100.0
68873;BME280;55907;50.806;12.882;2023-12-22T10:20:40;953.6;;;1.6;100.0
68873;BME280;55907;50.806;12.882;2023-12-22T10:23:41;953.8;;;1.6;100.0
68873;BME280;55907;50.806;12.882;2023-12-22T10:26:42;953.9;;;1.7;100.0
68873;BME280;55907;50.806;12.882;2023-12-22T10:29:42;954.1;;;1.8;100.0
68873;BME280;55907;50.806;12.882;2023-12-22T10:32:43;954.1;;;2.0;100.0
68873;BME280;55907;50.806;12.882;2023-12-22T10:35:44;954.0;;;2.1;100.0
68873;BME280;55907;50.806;12.882;2023-12-22T10:38:45;954.0;;;2.2;100.0
68873;BME280;55907;50.806;12.882;2023-12-22T10:41:46;953.9;;;2.8;100.0
68873;BME280;55907;50.806;12.882;2023-12-22T10:44:47;953.8;;;3.5;95.4
68873;BME280;55907;50.806;12.882;2023-12-22T10:47:48;953.8;;;3.5;92.8
68873;BME280;55907;50.806;12.882;2023-12-22T10:50:48;953.6;;;3.4;91.7
68873;BME280;55907;50.806;12.882;2023-12-22T10:53:50;953.6;;;3.6;90.5
68873;BME280;55907;50.806;12.882;2023-12-22T10:56:50;953.6;;;3.9;87.7
68873;BME280;55907;50.806;12.882;2023-12-22T10:59:51;953.7;;;3.9;86.6
68873;BME280;55907;50.806;12.882;2023-12-22T11:02:55;953.6;;;3.8;86.8
68873;BME280;55907;50.806;12.882;2023-12-22T11:05:54;953.5;;;3.8;85.5
68873;BME280;55907;50.806;12.882;2023-12-22T11:08:56;953.5;;;3.8;84.8
68873;BME280;55907;50.806;12.882;2023-12-22T11:11:54;953.4;;;3.8;84.3
68873;BME280;55907;50.806;12.882;2023-12-22T11:14:55;953.5;;;3.7;84.4
68873;BME280;55907;50.806;12.882;2023-12-22T11:17:56;953.5;;;3.6;84.8
68873;BME280;55907;50.806;12.882;2023-12-22T11:20:56;953.4;;;3.6;84.6
68873;BME280;55907;50.806;12.882;2023-12-22T11:23:57;953.4;;;3.8;83.6
68873;BME280;55907;50.806;12.882;2023-12-22T11:26:59;953.4;;;3.9;82.6
68873;BME280;55907;50.806;12.882;2023-12-22T11:30:00;953.3;;;3.9;82.5
68873;BME280;55907;50.806;12.882;2023-12-22T11:33:00;953.2;;;3.9;81.9
68873;BME280;55907;50.806;12.882;2023-12-22T11:36:01;953.1;;;3.8;81.1
68873;BME280;55907;50.806;12.882;2023-12-22T11:39:01;953.2;;;3.9;80.8
68873;BME280;55907;50.806;12.882;2023-12-22T11:42:03;953.1;;;3.9;80.7
68873;BME280;55907;50.806;12.882;2023-12-22T11:45:04;953.2;;;3.8;81.2
68873;BME280;55907;50.806;12.882;2023-12-22T11:48:06;953.0;;;3.8;81.6
68873;BME280;55907;50.806;12.882;2023-12-22T11:51:12;953.1;;;3.8;81.4
68873;BME280;55907;50.806;12.882;2023-12-22T12:00:09;953.1;;;3.9;80.4
68873;BME280;55907;50.806;12.882;2023-12-22T12:03:08;953.1;;;3.9;80.9
68873;BME280;55907;50.806;12.882;2023-12-22T12:09:10;952.9;;;4.0;80.7
68873;BME280;55907;50.806;12.882;2023-12-22T12:12:11;952.9;;;4.0;80.1
68873;BME280;55907;50.806;12.882;2023-12-22T12:15:15;952.8;;;4.0;79.9
68873;BME280;55907;50.806;12.882;2023-12-22T12:18:12;952.7;;;4.1;79.5
68873;BME280;55907;50.806;12.882;2023-12-22T12:21:13;952.8;;;4.0;79.4
68873;BME280;55907;50.806;12.882;2023-12-22T12:24:13;952.7;;;4.0;79.2
68873;BME280;55907;50.806;12.882;2023-12-22T12:27:17;952.6;;;4.0;78.3
68873;BME280;55907;50.806;12.882;2023-12-22T12:30:16;952.4;;;4.0;78.3
68873;BME280;55907;50.806;12.882;2023-12-22T12:33:17;952.4;;;4.0;78.3
68873;BME280;55907;50.806;12.882;2023-12-22T12:36:17;952.3;;;4.1;79.0
68873;BME280;55907;50.806;12.882;2023-12-22T13:06:25;952.2;;;4.2;81.1
68873;BME280;55907;50.806;12.882;2023-12-22T13:09:31;952.2;;;4.2;80.9
68873;BME280;55907;50.806;12.882;2023-12-22T13:12:26;952.0;;;4.2;80.7
68873;BME280;55907;50.806;12.882;2023-12-22T13:15:27;952.2;;;4.2;80.8
68873;BME280;55907;50.806;12.882;2023-12-22T13:18:29;952.4;;;4.2;80.8
68873;BME280;55907;50.806;12.882;2023-12-22T13:21:29;952.2;;;4.2;80.8
68873;BME280;55907;50.806;12.882;2023-12-22T13:24:30;952.3;;;4.2;81.6
68873;BME280;55907;50.806;12.882;2023-12-22T13:27:30;952.2;;;4.1;82.5
68873;BME280;55907;50.806;12.882;2023-12-22T13:30:32;952.1;;;4.1;83.1
68873;BME280;55907;50.806;12.882;2023-12-22T13:33:33;952.1;;;4.1;83.8
68873;BME280;55907;50.806;12.882;2023-12-22T13:36:33;952.3;;;4.1;84.1
68873;BME280;55907;50.806;12.882;2023-12-22T13:39:34;951.9;;;4.2;83.9
68873;BME280;55907;50.806;12.882;2023-12-22T13:42:35;952.0;;;4.2;84.2
68873;BME280;55907;50.806;12.882;2023-12-22T13:45:35;952.1;;;4.2;84.2
68873;BME280;55907;50.806;12.882;2023-12-22T13:48:36;951.9;;;4.2;84.2
68873;BME280;55907;50.806;12.882;2023-12-22T13:51:39;951.9;;;4.2;83.8
68873;BME280;55907;50.806;12.882;2023-12-22T13:54:38;951.8;;;4.3;83.7
68873;BME280;55907;50.806;12.882;2023-12-22T13:57:39;951.8;;;4.2;83.7
68873;BME280;55907;50.806;12.882;2023-12-22T14:00:39;951.9;;;4.2;84.0
68873;BME280;55907;50.806;12.882;2023-12-22T14:03:40;951.9;;;4.2;83.8
68873;BME280;55907;50.806;12.882;2023-12-22T14:06:41;951.9;;;4.3;83.8
68873;BME280;55907;50.806;12.882;2023-12-22T14:09:42;952.0;;;4.4;83.2
68873;BME280;55907;50.806;12.882;2023-12-22T14:12:43;952.1;;;4.4;83.0
68873;BME280;55907;50.806;12.882;2023-12-22T14:15:44;952.2;;;4.4;83.2
68873;BME280;55907;50.806;12.882;2023-12-22T14:21:45;952.2;;;4.5;83.0
68873;BME280;55907;50.806;12.882;2023-12-22T14:24:46;952.1;;;4.6;82.8
68873;BME280;55907;50.806;12.882;2023-12-22T14:27:47;952.3;;;4.6;82.4
68873;BME280;55907;50.806;12.882;2023-12-22T14:30:48;952.2;;;4.6;82.7
68873;BME280;55907;50.806;12.882;2023-12-22T14:33:48;952.4;;;4.6;83.1
68873;BME280;55907;50.806;12.882;2023-12-22T14:36:49;952.5;;;4.6;83.0
68873;BME280;55907;50.806;12.882;2023-12-22T14:39:50;952.5;;;4.7;82.9
68873;BME280;55907;50.806;12.882;2023-12-22T14:42:51;952.4;;;4.8;82.9
68873;BME280;55907;50.806;12.882;2023-12-22T14:45:52;952.6;;;4.7;82.9
68873;BME280;55907;50.806;12.882;2023-12-22T14:48:52;952.6;;;4.7;83.3
68873;BME280;55907;50.806;12.882;2023-12-22T14:51:53;952.6;;;4.7;83.5
68873;BME280;55907;50.806;12.882;2023-12-22T14:54:54;952.6;;;4.7;83.4
68873;BME280;55907;50.806;12.882;2023-12-22T14:57:55;952.6;;;4.7;83.4
68873;BME280;55907;50.806;12.882;2023-12-22T15:00:56;952.6;;;4.7;83.7
68873;BME280;55907;50.806;12.882;2023-12-22T15:03:56;952.5;;;4.7;84.1
68873;BME280;55907;50.806;12.882;2023-12-22T15:06:57;952.5;;;4.8;84.0
68873;BME280;55907;50.806;12.882;2023-12-22T15:09:58;952.6;;;4.7;84.3
68873;BME280;55907;50.806;12.882;2023-12-22T15:12:59;952.6;;;4.7;84.5
68873;BME280;55907;50.806;12.882;2023-12-22T15:16:03;952.6;;;4.7;84.6
68873;BME280;55907;50.806;12.882;2023-12-22T15:19:01;952.6;;;4.7;84.5
68873;BME280;55907;50.806;12.882;2023-12-22T15:22:01;952.5;;;4.7;84.8
68873;BME280;55907;50.806;12.882;2023-12-22T15:25:03;952.4;;;4.7;84.7
68873;BME280;55907;50.806;12.882;2023-12-22T15:28:03;952.4;;;4.7;85.1
68873;BME280;55907;50.806;12.882;2023-12-22T15:31:07;952.4;;;4.7;84.5
68873;BME280;55907;50.806;12.882;2023-12-22T15:34:05;952.4;;;4.7;84.1
68873;BME280;55907;50.806;12.882;2023-12-22T15:37:06;952.3;;;4.8;84.0
68873;BME280;55907;50.806;12.882;2023-12-22T15:40:07;952.3;;;4.8;84.1
68873;BME280;55907;50.806;12.882;2023-12-22T15:43:07;952.5;;;4.8;84.2
68873;BME280;55907;50.806;12.882;2023-12-22T15:46:08;952.4;;;4.8;84.3
68873;BME280;55907;50.806;12.882;2023-12-22T15:49:09;952.3;;;4.7;84.1
68873;BME280;55907;50.806;12.882;2023-12-22T15:52:10;952.3;;;4.8;84.0
68873;BME280;55907;50.806;12.882;2023-12-22T15:55:10;952.4;;;4.8;83.7
68873;BME280;55907;50.806;12.882;2023-12-22T15:58:11;952.4;;;4.8;83.7
68873;BME280;55907;50.806;12.882;2023-12-22T16:01:12;952.4;;;4.8;84.0
68873;BME280;55907;50.806;12.882;2023-12-22T16:04:13;952.4;;;4.8;84.0
68873;BME280;55907;50.806;12.882;2023-12-22T16:07:14;952.4;;;4.7;86.0
68873;BME280;55907;50.806;12.882;2023-12-22T16:10:15;952.3;;;4.6;87.6
68873;BME280;55907;50.806;12.882;2023-12-22T16:13:15;952.2;;;4.6;88.1
68873;BME280;55907;50.806;12.882;2023-12-22T16:16:17;952.2;;;4.5;89.3
68873;BME280;55907;50.806;12.882;2023-12-22T16:19:17;952.2;;;4.3;89.9
68873;BME280;55907;50.806;12.882;2023-12-22T16:22:18;952.2;;;4.2;89.9
68873;BME280;55907;50.806;12.882;2023-12-22T16:25:19;952.3;;;4.1;88.7
68873;BME280;55907;50.806;12.882;2023-12-22T16:28:20;952.2;;;4.1;88.0
68873;BME280;55907;50.806;12.882;2023-12-22T16:31:20;952.2;;;4.1;86.6
68873;BME280;55907;50.806;12.882;2023-12-22T16:34:21;952.1;;;4.1;87.2
68873;BME280;55907;50.806;12.882;2023-12-22T16:37:22;952.2;;;4.1;88.4
68873;BME280;55907;50.806;12.882;2023-12-22T16:40:23;952.4;;;4.1;90.3
68873;BME280;55907;50.806;12.882;2023-12-22T16:43:24;952.3;;;4.1;92.6
68873;BME280;55907;50.806;12.882;2023-12-22T16:46:24;952.2;;;4.0;93.2
68873;BME280;55907;50.806;12.882;2023-12-22T16:49:25;952.3;;;4.0;94.8
68873;BME280;55907;50.806;12.882;2023-12-22T16:52:26;952.3;;;4.0;94.6
68873;BME280;55907;50.806;12.882;2023-12-22T16:55:27;952.2;;;4.0;94.7
68873;BME280;55907;50.806;12.882;2023-12-22T16:58:28;952.0;;;3.9;95.8
68873;BME280;55907;50.806;12.882;2023-12-22T17:01:29;952.1;;;3.8;96.6
68873;BME280;55907;50.806;12.882;2023-12-22T17:04:29;952.2;;;3.8;96.6
68873;BME280;55907;50.806;12.882;2023-12-22T17:10:31;952.1;;;3.8;97.5
68873;BME280;55907;50.806;12.882;2023-12-22T17:13:32;952.3;;;3.7;98.0
68873;BME280;55907;50.806;12.882;2023-12-22T17:16:33;952.2;;;3.7;98.6
68873;BME280;55907;50.806;12.882;2023-12-22T17:19:34;952.1;;;3.6;99.6
68873;BME280;55907;50.806;12.882;2023-12-22T17:22:34;952.2;;;3.6;99.7
68873;BME280;55907;50.806;12.882;2023-12-22T17:25:35;952.2;;;3.6;100.0
68873;BME280;55907;50.806;12.882;2023-12-22T17:28:36;952.1;;;3.5;100.0
68873;BME280;55907;50.806;12.882;2023-12-22T17:34:38;952.2;;;3.3;100.0
68873;BME280;55907;50.806;12.882;2023-12-22T17:37:38;952.1;;;3.3;100.0
68873;BME280;55907;50.806;12.882;2023-12-22T17:40:39;952.2;;;3.3;100.0
68873;BME280;55907;50.806;12.882;2023-12-22T17:43:40;952.1;;;3.2;100.0
68873;BME280;55907;50.806;12.882;2023-12-22T17:46:41;952.0;;;3.3;100.0
68873;BME280;55907;50.806;12.882;2023-12-22T17:49:42;952.0;;;3.3;100.0
68873;BME280;55907;50.806;12.882;2023-12-22T17:52:42;951.9;;;3.3;100.0
68873;BME280;55907;50.806;12.882;2023-12-22T17:55:43;951.8;;;3.4;100.0
68873;BME280;55907;50.806;12.882;2023-12-22T17:58:44;951.9;;;3.4;100.0
68873;BME280;55907;50.806;12.882;2023-12-22T18:01:45;951.9;;;3.4;100.0
68873;BME280;55907;50.806;12.882;2023-12-22T18:04:46;951.8;;;3.4;100.0
68873;BME280;55907;50.806;12.882;2023-12-22T18:07:47;951.8;;;3.4;100.0
68873;BME280;55907;50.806;12.882;2023-12-22T18:10:47;952.0;;;3.4;100.0